Time;durP1;ratioP1;P1;durP2;ratioP2;P2;SDS_P1;SDS_P2;PMS_P1;PMS_P2;Temp;Humidity;BMP_temperature;BMP_pressure;BME280_temperature;BME280_humidity;BME280_pressure;Samples;Min_cycle;Max_cycle;Signal;HPM_P1;HPM_P2
2021/08/03 00:00:37;;;;;;;0.00;0.00;;;15.80;99.90;;;;;;5034906;28;20041;-85
2021/08/03 00:03:28;;;;;;;0.00;0.00;;;15.80;99.90;;;;;;5037519;28;20066;-86
2021/08/03 00:06:16;;;;;;;0.00;0.00;;;15.70;99.90;;;;;;5026868;28;20564;-86
2021/08/03 00:09:04;;;;;;;0.00;0.00;;;15.70;99.90;;;;;;5047049;28;20079;-85
2021/08/03 00:11:53;;;;;;;0.00;0.00;;;15.70;99.90;;;;;;5030893;28;20051;-86
2021/08/03 00:14:44;;;;;;;0.10;0.10;;;15.70;99.90;;;;;;5039048;28;20052;-86
2021/08/03 00:17:32;;;;;;;0.00;0.00;;;15.70;99.90;;;;;;5050609;28;20080;-86
2021/08/03 00:20:22;;;;;;;0.00;0.00;;;15.60;99.90;;;;;;5046652;28;20508;-87
2021/08/03 00:23:10;;;;;;;0.00;0.00;;;15.60;99.90;;;;;;5035914;28;20045;-87
2021/08/03 00:25:57;;;;;;;0.00;0.00;;;15.60;99.90;;;;;;5033893;28;20416;-86
2021/08/03 00:28:49;;;;;;;0.00;0.00;;;15.60;99.90;;;;;;5037453;28;20109;-86
2021/08/03 00:31:38;;;;;;;0.00;0.00;;;15.50;99.90;;;;;;5038503;28;20527;-86
2021/08/03 00:34:25;;;;;;;0.00;0.00;;;15.50;99.90;;;;;;5037185;28;20049;-86
2021/08/03 00:37:14;;;;;;;0.00;0.00;;;15.50;99.90;;;;;;5046912;28;20148;-86
2021/08/03 00:40:03;;;;;;;0.00;0.00;;;15.60;99.90;;;;;;5021808;28;20419;-87
2021/08/03 00:42:51;;;;;;;0.00;0.00;;;15.60;99.90;;;;;;5033052;28;20124;-86
2021/08/03 00:45:38;;;;;;;0.00;0.00;;;15.50;99.90;;;;;;5031545;28;20044;-86
2021/08/03 00:48:26;;;;;;;0.00;0.00;;;15.40;99.90;;;;;;5039918;28;20075;-86
2021/08/03 00:51:14;;;;;;;0.00;0.00;;;15.50;99.90;;;;;;5032907;28;20048;-86
2021/08/03 00:54:01;;;;;;;0.10;0.10;;;15.50;99.90;;;;;;5027602;28;20048;-87
2021/08/03 00:56:48;;;;;;;0.00;0.00;;;15.60;99.90;;;;;;5048327;28;20048;-86
2021/08/03 00:59:36;;;;;;;0.00;0.00;;;15.40;99.90;;;;;;5034648;28;20132;-86
2021/08/03 01:02:23;;;;;;;0.00;0.00;;;15.30;99.90;;;;;;5034890;28;20045;-86
2021/08/03 01:05:11;;;;;;;0.00;0.00;;;15.20;99.90;;;;;;5033280;28;20555;-86
2021/08/03 01:08:05;;;;;;;0.00;0.00;;;15.40;99.90;;;;;;5049856;28;20128;-86
2021/08/03 01:11:00;;;;;;;0.00;0.00;;;15.30;99.90;;;;;;5028992;28;20083;-86
2021/08/03 01:13:54;;;;;;;0.00;0.00;;;15.40;99.90;;;;;;5035287;28;20497;-85
2021/08/03 01:16:48;;;;;;;0.00;0.00;;;15.30;99.90;;;;;;5032878;28;20033;-86
2021/08/03 01:19:46;;;;;;;0.00;0.00;;;15.30;99.90;;;;;;5043303;28;20060;-86
2021/08/03 01:23:08;;;;;;;0.00;0.00;;;15.30;99.90;;;;;;5039828;28;20128;-86
2021/08/03 01:26:07;;;;;;;0.00;0.00;;;15.20;99.90;;;;;;5056720;28;20464;-86
2021/08/03 01:28:59;;;;;;;0.00;0.00;;;15.20;99.90;;;;;;5032322;28;20116;-86
2021/08/03 01:31:49;;;;;;;0.00;0.00;;;15.10;99.90;;;;;;5047515;28;20114;-86
2021/08/03 01:34:39;;;;;;;0.00;0.00;;;15.10;99.90;;;;;;5039854;28;20523;-86
2021/08/03 01:37:30;;;;;;;0.10;0.10;;;15.00;99.90;;;;;;5036296;28;20504;-86
2021/08/03 01:40:17;;;;;;;0.00;0.00;;;15.00;99.90;;;;;;5033931;28;20107;-86
2021/08/03 01:43:05;;;;;;;0.00;0.00;;;15.00;99.90;;;;;;5052001;28;20100;-87
2021/08/03 01:45:56;;;;;;;0.00;0.00;;;15.00;99.90;;;;;;5033755;28;20041;-86
2021/08/03 01:48:46;;;;;;;0.00;0.00;;;15.00;99.90;;;;;;5046160;28;20390;-86
2021/08/03 01:51:33;;;;;;;0.00;0.00;;;15.00;99.90;;;;;;5036400;28;20124;-86
2021/08/03 01:54:23;;;;;;;0.00;0.00;;;14.90;99.90;;;;;;5035789;28;20110;-86
2021/08/03 01:57:12;;;;;;;;;;;14.70;99.90;;;;;;5035476;28;20107;-86
2021/08/03 02:00:00;;;;;;;0.00;0.00;;;14.80;99.90;;;;;;5045222;28;19924;-86
2021/08/03 02:02:50;;;;;;;0.00;0.00;;;14.60;99.90;;;;;;5035497;28;20080;-86
2021/08/03 02:05:37;;;;;;;0.00;0.00;;;14.70;99.90;;;;;;5052456;28;20045;-86
2021/08/03 02:08:26;;;;;;;0.00;0.00;;;14.70;99.90;;;;;;5056559;28;20044;-85
2021/08/03 02:11:13;;;;;;;0.00;0.00;;;14.60;99.90;;;;;;5035533;28;20125;-86
2021/08/03 02:14:01;;;;;;;0.00;0.00;;;;;;;;;;5050012;28;20045;-87
2021/08/03 02:16:48;;;;;;;0.00;0.00;;;14.60;99.90;;;;;;5035411;28;20037;-86
2021/08/03 02:19:37;;;;;;;0.00;0.00;;;14.60;99.90;;;;;;5050713;28;20049;-86
2021/08/03 02:22:24;;;;;;;0.00;0.00;;;14.60;99.90;;;;;;5045689;28;20663;-86
2021/08/03 02:25:11;;;;;;;0.00;0.00;;;14.50;99.90;;;;;;5043527;28;20054;-86
2021/08/03 02:27:58;;;;;;;0.00;0.00;;;14.50;99.90;;;;;;5035835;28;20129;-87
2021/08/03 02:30:52;;;;;;;0.00;0.00;;;14.50;99.90;;;;;;5057658;28;20071;-86
2021/08/03 02:33:44;;;;;;;0.00;0.00;;;14.50;99.90;;;;;;5030924;28;20087;-86
2021/08/03 02:36:40;;;;;;;0.00;0.00;;;14.40;99.90;;;;;;5037217;28;20459;-85
2021/08/03 02:39:29;;;;;;;0.00;0.00;;;14.30;99.90;;;;;;5042840;28;20047;-86
2021/08/03 02:42:17;;;;;;;0.00;0.00;;;14.20;99.90;;;;;;5045889;28;20132;-86
2021/08/03 02:45:05;;;;;;;0.00;0.00;;;14.20;99.90;;;;;;5037034;28;20055;-85
2021/08/03 02:47:57;;;;;;;0.00;0.00;;;14.10;99.90;;;;;;5033669;28;20562;-86
2021/08/03 02:50:46;;;;;;;0.00;0.00;;;14.00;99.90;;;;;;5045684;28;20076;-86
2021/08/03 02:53:38;;;;;;;0.00;0.00;;;13.90;99.90;;;;;;5039483;28;20076;-86
2021/08/03 02:56:27;;;;;;;0.00;0.00;;;13.90;99.90;;;;;;5035477;28;20041;-85
2021/08/03 02:59:16;;;;;;;0.00;0.00;;;13.80;99.90;;;;;;5037909;28;20045;-86
2021/08/03 03:02:07;;;;;;;0.00;0.00;;;13.80;99.90;;;;;;5046306;28;20547;-86
2021/08/03 03:04:58;;;;;;;0.00;0.00;;;13.70;99.90;;;;;;5043583;28;20245;-86
2021/08/03 03:07:49;;;;;;;0.00;0.00;;;13.60;99.90;;;;;;5053600;28;20041;-85
2021/08/03 03:10:43;;;;;;;0.00;0.00;;;13.60;99.90;;;;;;5033762;28;20041;-86
2021/08/03 03:13:35;;;;;;;0.00;0.00;;;13.60;99.90;;;;;;5039173;28;20048;-85
2021/08/03 03:16:23;;;;;;;0.00;0.00;;;13.50;99.90;;;;;;5051328;28;20032;-86
2021/08/03 03:19:10;;;;;;;0.00;0.00;;;13.50;99.90;;;;;;5049634;28;20049;-86
2021/08/03 03:21:57;;;;;;;0.00;0.00;;;13.40;99.90;;;;;;5052992;28;20045;-86
2021/08/03 03:24:47;;;;;;;0.00;0.00;;;13.30;99.90;;;;;;5051218;28;20123;-85
2021/08/03 03:27:36;;;;;;;0.00;0.00;;;13.30;99.90;;;;;;5050622;28;20516;-85
2021/08/03 03:30:24;;;;;;;0.00;0.00;;;13.30;99.90;;;;;;5033470;28;20258;-86
2021/08/03 03:33:13;;;;;;;0.10;0.10;;;13.30;99.90;;;;;;5048732;28;20103;-85
2021/08/03 03:36:01;;;;;;;0.00;0.00;;;13.30;99.90;;;;;;5094257;22;20558;-85
2021/08/03 03:38:49;;;;;;;0.00;0.00;;;13.30;99.90;;;;;;5066296;28;20511;-84
2021/08/03 03:41:37;;;;;;;0.00;0.00;;;13.30;99.90;;;;;;5050231;28;20313;-84
2021/08/03 03:44:26;;;;;;;0.00;0.00;;;13.30;99.90;;;;;;5057049;28;20044;-85
2021/08/03 03:47:18;;;;;;;0.00;0.00;;;13.20;99.90;;;;;;5056154;28;20045;-84
2021/08/03 03:50:11;;;;;;;0.00;0.00;;;13.20;99.90;;;;;;5058580;28;20091;-84
2021/08/03 03:53:05;;;;;;;0.00;0.00;;;13.20;99.90;;;;;;5060206;28;20196;-83
2021/08/03 03:55:56;;;;;;;0.00;0.00;;;13.20;99.90;;;;;;5057695;28;20576;-84
2021/08/03 03:58:49;;;;;;;0.00;0.00;;;13.20;99.90;;;;;;5057190;28;20076;-83
2021/08/03 04:01:38;;;;;;;0.00;0.00;;;13.10;99.90;;;;;;5069633;28;20048;-85
2021/08/03 04:04:28;;;;;;;0.00;0.00;;;13.10;99.90;;;;;;5056765;28;20510;-84
2021/08/03 04:07:15;;;;;;;0.00;0.00;;;13.00;99.90;;;;;;5071336;28;20475;-85
2021/08/03 04:10:04;;;;;;;0.00;0.00;;;13.00;99.90;;;;;;5071354;28;20043;-84
2021/08/03 04:12:51;;;;;;;0.00;0.00;;;13.00;99.90;;;;;;5071423;28;20048;-83
2021/08/03 04:15:39;;;;;;;0.00;0.00;;;13.00;99.90;;;;;;5072879;28;20488;-84
2021/08/03 04:18:27;;;;;;;0.10;0.10;;;13.00;99.90;;;;;;5072019;28;20120;-83
2021/08/03 04:21:14;;;;;;;0.00;0.00;;;13.00;99.90;;;;;;5070675;28;20053;-84
2021/08/03 04:24:01;;;;;;;0.00;0.00;;;12.90;99.90;;;;;;5058077;28;20055;-85
2021/08/03 04:26:48;;;;;;;0.00;0.00;;;12.90;99.90;;;;;;5055109;28;20051;-86
2021/08/03 04:29:35;;;;;;;0.00;0.00;;;12.90;99.90;;;;;;5058642;28;20060;-84
2021/08/03 04:32:22;;;;;;;0.00;0.00;;;12.90;99.90;;;;;;5053931;28;20051;-84
2021/08/03 04:35:11;;;;;;;0.00;0.00;;;13.00;99.90;;;;;;5069237;28;20078;-84
2021/08/03 04:37:58;;;;;;;0.00;0.00;;;13.00;99.90;;;;;;5056242;28;20506;-84
2021/08/03 04:40:45;;;;;;;0.00;0.00;;;13.10;99.90;;;;;;5055691;28;20049;-84
2021/08/03 04:43:33;;;;;;;0.10;0.10;;;13.10;99.90;;;;;;5061702;28;20048;-84
2021/08/03 04:46:20;;;;;;;0.00;0.00;;;12.90;99.90;;;;;;5056901;28;20044;-84
2021/08/03 04:49:07;;;;;;;0.00;0.00;;;12.90;99.90;;;;;;5057977;28;20040;-85
2021/08/03 04:51:55;;;;;;;0.00;0.00;;;12.90;99.90;;;;;;5072153;28;20056;-85
2021/08/03 04:54:42;;;;;;;0.00;0.00;;;13.00;99.90;;;;;;5053726;28;20059;-84
2021/08/03 04:57:29;;;;;;;0.03;0.03;;;13.10;99.90;;;;;;5058166;28;20076;-85
2021/08/03 05:00:17;;;;;;;0.00;0.00;;;13.20;99.90;;;;;;5066976;28;20054;-84
2021/08/03 05:03:04;;;;;;;0.00;0.00;;;13.30;99.90;;;;;;5057693;28;20115;-84
2021/08/03 05:05:52;;;;;;;0.00;0.00;;;13.30;99.90;;;;;;5068528;28;20577;-83
2021/08/03 05:08:40;;;;;;;0.00;0.00;;;13.40;99.90;;;;;;5065835;28;20120;-83
2021/08/03 05:11:27;;;;;;;0.10;0.10;;;13.50;99.90;;;;;;5057737;28;20056;-83
2021/08/03 05:14:14;;;;;;;0.00;0.00;;;13.60;99.90;;;;;;5056411;28;20045;-83
2021/08/03 05:17:02;;;;;;;0.00;0.00;;;13.70;99.90;;;;;;5058014;28;20060;-83
2021/08/03 05:19:50;;;;;;;0.00;0.00;;;13.80;99.90;;;;;;5072089;28;20053;-83
2021/08/03 05:22:38;;;;;;;0.00;0.00;;;13.90;99.90;;;;;;5059884;28;20552;-83
2021/08/03 05:25:27;;;;;;;0.00;0.00;;;13.90;99.90;;;;;;5060257;28;20115;-83
2021/08/03 05:28:14;;;;;;;0.00;0.00;;;14.00;99.90;;;;;;5076493;28;20127;-83
2021/08/03 05:31:01;;;;;;;0.00;0.00;;;14.00;99.90;;;;;;5057543;28;20048;-84
2021/08/03 05:33:48;;;;;;;0.00;0.00;;;14.10;99.90;;;;;;5057499;28;20127;-84
2021/08/03 05:36:35;;;;;;;0.00;0.00;;;14.20;99.90;;;;;;5058063;28;20055;-84
2021/08/03 05:39:22;;;;;;;0.00;0.00;;;14.30;99.90;;;;;;5069062;28;20043;-85
2021/08/03 05:42:10;;;;;;;0.00;0.00;;;14.40;99.90;;;;;;5084353;28;20551;-84
2021/08/03 05:44:57;;;;;;;0.00;0.00;;;14.60;99.90;;;;;;5059521;28;20041;-84
2021/08/03 05:47:45;;;;;;;0.00;0.00;;;14.60;99.90;;;;;;5069192;28;20127;-85
2021/08/03 05:50:32;;;;;;;0.00;0.00;;;14.70;99.90;;;;;;5071511;28;20040;-85
2021/08/03 05:53:19;;;;;;;0.00;0.00;;;14.70;99.90;;;;;;5060069;28;21108;-83
2021/08/03 05:56:06;;;;;;;0.00;0.00;;;14.80;99.90;;;;;;5073344;28;20131;-84
2021/08/03 05:58:54;;;;;;;0.00;0.00;;;15.00;99.90;;;;;;5068848;28;20045;-85
2021/08/03 06:01:42;;;;;;;0.00;0.00;;;15.10;99.90;;;;;;5054024;28;20051;-86
2021/08/03 06:04:29;;;;;;;0.00;0.00;;;15.20;99.90;;;;;;5053951;28;20059;-83
2021/08/03 06:07:17;;;;;;;0.00;0.00;;;15.20;99.90;;;;;;5056667;28;20052;-85
2021/08/03 06:10:06;;;;;;;0.00;0.00;;;15.20;99.90;;;;;;5071639;28;20068;-85
2021/08/03 06:12:55;;;;;;;0.00;0.00;;;15.10;99.90;;;;;;5060402;28;20147;-84
2021/08/03 06:15:48;;;;;;;0.00;0.00;;;15.30;99.90;;;;;;5056532;28;20044;-85
2021/08/03 06:18:37;;;;;;;0.00;0.00;;;15.40;99.90;;;;;;5070959;28;20040;-85
2021/08/03 06:21:25;;;;;;;0.00;0.00;;;15.50;99.90;;;;;;5060595;28;20121;-84
2021/08/03 06:24:16;;;;;;;0.00;0.00;;;15.50;99.90;;;;;;5055955;28;20051;-86
2021/08/03 06:27:05;;;;;;;0.00;0.00;;;15.70;99.90;;;;;;5057743;28;20404;-84
2021/08/03 06:29:53;;;;;;;0.00;0.00;;;15.80;99.90;;;;;;5066516;28;20044;-84
2021/08/03 06:32:44;;;;;;;0.00;0.00;;;15.90;99.90;;;;;;5052689;28;20047;-85
2021/08/03 06:35:32;;;;;;;0.00;0.00;;;16.00;99.90;;;;;;5073289;28;20036;-85
2021/08/03 06:38:20;;;;;;;0.00;0.00;;;16.00;99.90;;;;;;5073062;28;20041;-85
2021/08/03 06:41:10;;;;;;;0.00;0.00;;;16.10;99.90;;;;;;5058478;28;20040;-85
2021/08/03 06:44:05;;;;;;;0.00;0.00;;;16.00;99.90;;;;;;5053629;28;20043;-85
2021/08/03 06:46:55;;;;;;;0.00;0.00;;;16.10;99.90;;;;;;5052985;28;20182;-84
2021/08/03 06:49:48;;;;;;;0.00;0.00;;;16.10;99.90;;;;;;5073210;28;20052;-85
2021/08/03 06:52:37;;;;;;;0.00;0.00;;;16.10;99.90;;;;;;5058432;28;20047;-84
2021/08/03 06:55:28;;;;;;;0.00;0.00;;;15.80;99.90;;;;;;5053933;28;20040;-83
2021/08/03 06:58:24;;;;;;;0.00;0.00;;;15.90;99.90;;;;;;5053457;28;20360;-83
2021/08/03 07:01:16;;;;;;;0.00;0.00;;;16.00;99.90;;;;;;5059863;28;20049;-83
2021/08/03 07:04:05;;;;;;;0.00;0.00;;;16.10;99.90;;;;;;5055666;28;20049;-85
2021/08/03 07:06:56;;;;;;;0.00;0.00;;;16.00;99.90;;;;;;5057488;28;20083;-83
2021/08/03 07:09:43;;;;;;;0.00;0.00;;;16.20;99.90;;;;;;5065414;28;20037;-84
2021/08/03 07:12:31;;;;;;;0.00;0.00;;;16.20;99.90;;;;;;5069167;28;20475;-85
2021/08/03 07:15:19;;;;;;;0.00;0.00;;;16.10;99.90;;;;;;5053667;28;20055;-85
2021/08/03 07:18:10;;;;;;;0.00;0.00;;;16.10;99.90;;;;;;5051246;28;20556;-84
2021/08/03 07:20:58;;;;;;;0.00;0.00;;;16.20;99.90;;;;;;5057220;28;20175;-83
2021/08/03 07:23:48;;;;;;;0.00;0.00;;;16.10;99.90;;;;;;5057884;28;20040;-83
2021/08/03 07:26:35;;;;;;;;;;;16.10;99.90;;;;;;5054428;28;20068;-84
2021/08/03 07:29:22;;;;;;;0.00;0.00;;;16.10;99.90;;;;;;5066419;28;19935;-83
2021/08/03 07:32:10;;;;;;;0.00;0.00;;;16.40;99.90;;;;;;5060431;28;20062;-85
2021/08/03 07:34:57;;;;;;;0.00;0.00;;;16.40;99.90;;;;;;5064081;28;20424;-86
2021/08/03 07:37:44;;;;;;;0.00;0.00;;;16.50;99.90;;;;;;5054100;28;20047;-85
2021/08/03 07:40:33;;;;;;;0.00;0.00;;;16.50;99.90;;;;;;5051177;28;20045;-85
2021/08/03 07:43:20;;;;;;;0.00;0.00;;;16.70;99.90;;;;;;5052275;28;20048;-85
2021/08/03 07:46:07;;;;;;;0.00;0.00;;;17.00;99.90;;;;;;5066657;28;20102;-85
2021/08/03 07:48:55;;;;;;;0.00;0.00;;;17.00;99.90;;;;;;5054237;28;20125;-84
2021/08/03 07:51:42;;;;;;;0.00;0.00;;;17.00;99.90;;;;;;5060189;28;20435;-85
2021/08/03 07:54:29;;;;;;;0.00;0.00;;;16.90;99.90;;;;;;5064251;28;20051;-84
2021/08/03 07:57:18;;;;;;;0.00;0.00;;;17.00;99.90;;;;;;5060918;28;20119;-85
2021/08/03 08:00:07;;;;;;;0.00;0.00;;;17.20;99.90;;;;;;5051364;28;20050;-86
2021/08/03 08:02:55;;;;;;;0.00;0.00;;;17.20;99.90;;;;;;5072645;28;20103;-85
2021/08/03 08:05:43;;;;;;;0.00;0.00;;;17.20;99.90;;;;;;5064341;28;20075;-85
2021/08/03 08:08:30;;;;;;;0.00;0.00;;;17.20;99.90;;;;;;5052682;28;20036;-85
2021/08/03 08:11:17;;;;;;;0.00;0.00;;;17.30;99.90;;;;;;5066996;28;20197;-85
2021/08/03 08:14:06;;;;;;;0.00;0.00;;;17.50;99.90;;;;;;5061813;28;20047;-85
2021/08/03 08:16:53;;;;;;;0.00;0.00;;;17.30;99.90;;;;;;5056264;28;20125;-85
2021/08/03 08:19:40;;;;;;;0.00;0.00;;;17.60;99.90;;;;;;5055465;28;20412;-85
2021/08/03 08:22:27;;;;;;;0.00;0.00;;;17.70;99.90;;;;;;5071374;28;20047;-84
2021/08/03 08:25:15;;;;;;;0.00;0.00;;;17.60;99.90;;;;;;5051237;28;20448;-85
2021/08/03 08:28:02;;;;;;;0.00;0.00;;;17.50;99.90;;;;;;5058817;28;20115;-83
2021/08/03 08:30:51;;;;;;;0.00;0.00;;;17.70;99.90;;;;;;5051074;28;20053;-83
2021/08/03 08:33:38;;;;;;;0.00;0.00;;;18.00;99.90;;;;;;5050195;28;20049;-82
2021/08/03 08:36:25;;;;;;;0.00;0.00;;;17.90;99.90;;;;;;5039265;28;20202;-84
2021/08/03 08:39:12;;;;;;;0.00;0.00;;;18.10;99.90;;;;;;5069297;28;20132;-85
2021/08/03 08:42:00;;;;;;;0.00;0.00;;;18.40;99.90;;;;;;5060829;28;20055;-86
2021/08/03 08:44:48;;;;;;;0.00;0.00;;;18.50;99.90;;;;;;5054195;28;20490;-85
2021/08/03 08:47:41;;;;;;;0.00;0.00;;;18.60;99.90;;;;;;5065761;28;20036;-84
2021/08/03 08:50:28;;;;;;;0.00;0.00;;;18.50;99.90;;;;;;5068016;28;20154;-85
2021/08/03 08:53:18;;;;;;;0.00;0.00;;;18.60;99.90;;;;;;5072113;28;20044;-86
2021/08/03 08:56:06;;;;;;;0.00;0.00;;;18.90;99.90;;;;;;5077769;28;20052;-84
2021/08/03 08:58:53;;;;;;;0.00;0.00;;;18.70;99.90;;;;;;5065808;28;20145;-85
2021/08/03 09:01:40;;;;;;;0.00;0.00;;;18.60;99.90;;;;;;5073948;28;20104;-85
2021/08/03 09:04:29;;;;;;;0.00;0.00;;;18.20;99.90;;;;;;5065310;28;20044;-86
2021/08/03 09:07:18;;;;;;;0.00;0.00;;;18.30;99.90;;;;;;5053767;28;20135;-87
2021/08/03 09:10:06;;;;;;;0.00;0.00;;;18.60;99.90;;;;;;5059224;28;20294;-85
2021/08/03 09:12:59;;;;;;;0.00;0.00;;;18.60;99.90;;;;;;5089022;28;20080;-85
2021/08/03 09:15:57;;;;;;;0.00;0.00;;;18.70;99.90;;;;;;5076397;28;20044;-85
2021/08/03 09:18:45;;;;;;;0.00;0.00;;;18.90;99.90;;;;;;5073887;28;20173;-85
2021/08/03 09:21:33;;;;;;;0.00;0.00;;;19.10;99.90;;;;;;5065839;28;20059;-85
2021/08/03 09:24:22;;;;;;;0.00;0.00;;;19.10;99.90;;;;;;5055047;28;20132;-86
2021/08/03 09:27:30;;;;;;;0.00;0.00;;;19.40;99.90;;;;;;5054194;28;20411;-85
2021/08/03 09:30:28;;;;;;;0.00;0.00;;;19.50;99.90;;;;;;5069953;28;20044;-85
2021/08/03 09:33:22;;;;;;;0.00;0.00;;;19.70;99.90;;;;;;5073480;28;20056;-85
2021/08/03 09:36:09;;;;;;;0.00;0.00;;;19.20;99.90;;;;;;5070312;22;20057;-86
2021/08/03 09:38:57;;;;;;;0.00;0.00;;;19.50;99.90;;;;;;5050086;28;20052;-86
2021/08/03 09:41:46;;;;;;;0.00;0.00;;;19.60;99.90;;;;;;5043107;28;20077;-83
2021/08/03 09:44:34;;;;;;;0.00;0.00;;;19.70;99.90;;;;;;5055674;28;20288;-85
2021/08/03 09:47:23;;;;;;;0.00;0.00;;;19.80;99.90;;;;;;5038872;28;20056;-84
2021/08/03 09:50:11;;;;;;;0.00;0.00;;;19.70;99.90;;;;;;5041497;28;20564;-86
2021/08/03 09:53:01;;;;;;;0.00;0.00;;;19.80;99.90;;;;;;5052960;28;20399;-87
2021/08/03 09:55:53;;;;;;;0.00;0.00;;;20.10;99.90;;;;;;5050133;28;20492;-85
2021/08/03 09:59:03;;;;;;;0.00;0.00;;;20.40;99.90;;;;;;5054990;28;20537;-84
2021/08/03 10:01:51;;;;;;;0.00;0.00;;;20.50;99.90;;;;;;5047136;28;20044;-85
2021/08/03 10:04:41;;;;;;;0.00;0.00;;;20.70;99.90;;;;;;5046994;28;20076;-82
2021/08/03 10:07:28;;;;;;;0.00;0.00;;;20.70;99.90;;;;;;5046976;28;20049;-87
2021/08/03 10:10:15;;;;;;;0.00;0.00;;;20.80;99.90;;;;;;5047185;28;20059;-86
2021/08/03 10:13:04;;;;;;;0.00;0.00;;;20.80;98.30;;;;;;5051272;28;20127;-86
2021/08/03 10:15:51;;;;;;;0.00;0.00;;;20.80;99.30;;;;;;5054872;28;20040;-84
2021/08/03 10:18:39;;;;;;;0.00;0.00;;;21.00;99.90;;;;;;5046121;28;20127;-86
2021/08/03 10:21:30;;;;;;;0.00;0.00;;;21.20;99.90;;;;;;5050491;28;20049;-86
2021/08/03 10:24:29;;;;;;;0.00;0.00;;;21.40;98.00;;;;;;5043421;28;20489;-86
2021/08/03 10:27:16;;;;;;;;;;;21.50;99.00;;;;;;5051288;28;20508;-87
2021/08/03 10:30:07;;;;;;;0.00;0.00;;;21.40;97.80;;;;;;5051369;28;19920;-83
2021/08/03 10:32:54;;;;;;;0.00;0.00;;;21.10;97.20;;;;;;5066600;28;20041;-85
2021/08/03 10:35:46;;;;;;;0.00;0.00;;;21.30;97.60;;;;;;5052994;28;20049;-85
2021/08/03 10:38:33;;;;;;;0.00;0.00;;;21.40;99.10;;;;;;5052878;28;20080;-86
2021/08/03 10:41:20;;;;;;;0.00;0.00;;;21.70;97.80;;;;;;5050095;28;20135;-84
2021/08/03 10:44:37;;;;;;;0.00;0.00;;;21.80;96.80;;;;;;5042155;28;20993;-87
2021/08/03 10:47:46;;;;;;;0.00;0.00;;;22.10;98.90;;;;;;5040170;28;20055;-86
2021/08/03 10:50:33;;;;;;;0.00;0.00;;;22.40;97.10;;;;;;5045071;28;20225;-86
2021/08/03 10:53:20;;;;;;;0.00;0.00;;;22.40;96.10;;;;;;5050659;28;20089;-85
2021/08/03 10:56:07;;;;;;;0.00;0.00;;;22.60;97.00;;;;;;5060129;28;20474;-86
2021/08/03 10:59:34;;;;;;;0.00;0.00;;;22.80;97.20;;;;;;5053270;28;20134;-87
2021/08/03 11:02:45;;;;;;;0.00;0.00;;;22.60;95.00;;;;;;5059486;28;20040;-86
2021/08/03 11:05:34;;;;;;;0.00;0.00;;;22.30;95.60;;;;;;5063191;28;20044;-86
2021/08/03 11:08:32;;;;;;;0.00;0.00;;;22.50;95.30;;;;;;5050655;28;20044;-83
2021/08/03 11:11:22;;;;;;;0.00;0.00;;;22.10;94.40;;;;;;5058134;28;20151;-86
2021/08/03 11:14:26;;;;;;;0.00;0.00;;;22.20;96.00;;;;;;5043503;28;20090;-86
2021/08/03 11:17:51;;;;;;;0.00;0.00;;;22.10;97.00;;;;;;5044999;28;20485;-85
2021/08/03 11:21:00;;;;;;;0.00;0.00;;;22.30;95.10;;;;;;5047668;28;20044;-86
2021/08/03 11:24:05;;;;;;;0.00;0.00;;;22.10;96.60;;;;;;5053805;28;20048;-86
2021/08/03 11:26:54;;;;;;;0.00;0.00;;;22.00;95.90;;;;;;5046330;28;20500;-86
2021/08/03 11:29:42;;;;;;;0.00;0.00;;;22.00;96.50;;;;;;5038594;28;20377;-84
2021/08/03 11:32:31;;;;;;;0.00;0.00;;;22.00;97.00;;;;;;5043118;28;20045;-86
2021/08/03 11:35:25;;;;;;;;;;;22.00;96.40;;;;;;5045391;28;20055;-82
2021/08/03 11:38:14;;;;;;;0.00;0.00;;;22.20;96.40;;;;;;5037919;28;20380;-87
2021/08/03 11:41:01;;;;;;;0.00;0.00;;;22.10;96.80;;;;;;5055636;28;20045;-84
2021/08/03 11:43:49;;;;;;;0.00;0.00;;;22.20;97.10;;;;;;5045848;28;20506;-87
2021/08/03 11:46:36;;;;;;;0.00;0.00;;;22.00;96.30;;;;;;5039780;28;20045;-84
2021/08/03 11:49:45;;;;;;;0.00;0.00;;;21.70;96.80;;;;;;5041608;28;20167;-86
2021/08/03 11:52:34;;;;;;;0.00;0.00;;;21.40;97.40;;;;;;5054817;28;20547;-86
2021/08/03 11:55:21;;;;;;;0.00;0.00;;;21.60;97.10;;;;;;5045618;28;20041;-86
2021/08/03 11:58:10;;;;;;;0.00;0.00;;;21.50;96.80;;;;;;5045527;28;20044;-85
2021/08/03 12:00:59;;;;;;;0.00;0.00;;;21.40;97.40;;;;;;5048341;28;20563;-86
2021/08/03 12:03:47;;;;;;;0.00;0.00;;;21.40;99.20;;;;;;5042446;28;20041;-84
2021/08/03 12:06:34;;;;;;;0.00;0.00;;;21.20;98.60;;;;;;5047393;28;20094;-86
2021/08/03 12:09:23;;;;;;;0.00;0.00;;;21.20;98.80;;;;;;5050789;28;20045;-85
2021/08/03 12:12:14;;;;;;;0.00;0.00;;;21.10;98.90;;;;;;5045217;28;20135;-86
2021/08/03 12:15:07;;;;;;;0.00;0.00;;;21.30;99.60;;;;;;5048691;28;20127;-85
2021/08/03 12:18:06;;;;;;;0.00;0.00;;;21.30;98.40;;;;;;5050844;28;20041;-85
2021/08/03 12:20:55;;;;;;;0.00;0.00;;;21.40;98.70;;;;;;5046615;28;20045;-84
2021/08/03 12:23:43;;;;;;;0.00;0.00;;;21.50;98.20;;;;;;5054815;28;20139;-84
2021/08/03 12:26:31;;;;;;;0.00;0.00;;;21.40;98.60;;;;;;5040495;28;20072;-84
2021/08/03 12:29:33;;;;;;;0.00;0.00;;;21.40;97.20;;;;;;5050614;28;20528;-84
2021/08/03 12:32:37;;;;;;;0.00;0.00;;;21.90;97.70;;;;;;5051012;28;20051;-84
2021/08/03 12:35:25;;;;;;;0.00;0.00;;;22.10;97.70;;;;;;5052091;28;20041;-84
2021/08/03 12:38:13;;;;;;;0.00;0.00;;;22.10;96.80;;;;;;5039883;28;20160;-83
2021/08/03 12:41:14;;;;;;;0.00;0.00;;;22.10;96.40;;;;;;5046152;28;20105;-83
2021/08/03 12:44:03;;;;;;;0.00;0.00;;;22.40;96.20;;;;;;5045600;28;20040;-80
2021/08/03 12:46:50;;;;;;;0.00;0.00;;;22.40;97.80;;;;;;5041116;28;20120;-85
2021/08/03 12:49:39;;;;;;;0.00;0.00;;;22.40;96.20;;;;;;5045586;28;20045;-82
2021/08/03 12:52:26;;;;;;;0.00;0.00;;;22.20;95.90;;;;;;5037955;28;20056;-85
2021/08/03 12:55:22;;;;;;;0.00;0.00;;;22.20;98.70;;;;;;5048323;28;20045;-83
2021/08/03 12:58:09;;;;;;;0.00;0.00;;;22.20;99.40;;;;;;5045903;28;20116;-83
2021/08/03 13:01:09;;;;;;;0.00;0.00;;;23.10;98.60;;;;;;5042196;28;20033;-85
2021/08/03 13:03:56;;;;;;;0.00;0.00;;;22.20;99.30;;;;;;5044542;28;20444;-85
2021/08/03 13:06:50;;;;;;;0.00;0.00;;;22.60;99.80;;;;;;5053931;28;20045;-87
2021/08/03 13:09:45;;;;;;;0.00;0.00;;;22.10;98.90;;;;;;5047728;28;20029;-85
2021/08/03 13:12:32;;;;;;;0.00;0.00;;;22.00;99.40;;;;;;5046629;28;20041;-85
2021/08/03 13:15:19;;;;;;;0.00;0.00;;;21.80;99.90;;;;;;5050480;28;20134;-84
2021/08/03 13:18:08;;;;;;;0.00;0.00;;;21.60;99.10;;;;;;5054796;28;20045;-82
2021/08/03 13:20:55;;;;;;;0.00;0.00;;;21.60;99.90;;;;;;5045047;28;20127;-84
2021/08/03 13:23:45;;;;;;;0.00;0.00;;;21.50;98.30;;;;;;5046347;28;20069;-79
2021/08/03 13:26:32;;;;;;;0.00;0.00;;;21.60;98.90;;;;;;5045803;28;20048;-85
2021/08/03 13:29:19;;;;;;;0.00;0.00;;;21.30;99.60;;;;;;5052583;28;20056;-84
2021/08/03 13:32:06;;;;;;;0.00;0.00;;;21.60;99.90;;;;;;5048342;28;20049;-86
2021/08/03 13:34:55;;;;;;;0.00;0.00;;;21.50;97.50;;;;;;5047483;28;20543;-84
2021/08/03 13:37:42;;;;;;;0.00;0.00;;;21.40;98.30;;;;;;5052903;28;20067;-85
2021/08/03 13:40:30;;;;;;;0.00;0.00;;;21.20;97.20;;;;;;5048808;28;20052;-85
2021/08/03 13:43:17;;;;;;;0.00;0.00;;;21.20;99.00;;;;;;5055151;28;20132;-84
2021/08/03 13:46:04;;;;;;;0.00;0.00;;;21.40;98.60;;;;;;5047826;28;20138;-84
2021/08/03 13:48:51;;;;;;;0.00;0.00;;;21.40;97.70;;;;;;5053334;28;20515;-85
2021/08/03 13:51:39;;;;;;;0.00;0.00;;;21.50;98.40;;;;;;5052626;28;20059;-81
2021/08/03 13:54:27;;;;;;;0.00;0.00;;;21.50;98.70;;;;;;5049333;28;20055;-83
2021/08/03 13:57:14;;;;;;;0.00;0.00;;;21.50;98.20;;;;;;5050104;28;20048;-85
2021/08/03 14:00:01;;;;;;;0.00;0.00;;;21.60;96.90;;;;;;5048415;28;20497;-82
2021/08/03 14:02:48;;;;;;;0.00;0.00;;;21.60;97.40;;;;;;5053349;28;20170;-81
2021/08/03 14:05:35;;;;;;;0.00;0.00;;;21.90;97.40;;;;;;5048959;28;20044;-84
2021/08/03 14:08:24;;;;;;;0.00;0.00;;;21.30;96.80;;;;;;5051388;28;20526;-85
2021/08/03 14:11:11;;;;;;;0.00;0.00;;;21.40;96.70;;;;;;5050974;28;20072;-85
2021/08/03 14:13:59;;;;;;;0.00;0.00;;;21.50;95.60;;;;;;5057894;28;20044;-84
2021/08/03 14:16:47;;;;;;;0.00;0.00;;;21.20;97.50;;;;;;5045419;28;20623;-84
2021/08/03 14:19:34;;;;;;;0.00;0.00;;;21.30;97.00;;;;;;5048151;28;20037;-84
2021/08/03 14:22:21;;;;;;;0.00;0.00;;;21.60;95.10;;;;;;5054879;28;20698;-84
2021/08/03 14:25:11;;;;;;;0.00;0.00;;;21.90;95.40;;;;;;5057712;28;20045;-82
2021/08/03 14:28:04;;;;;;;0.00;0.00;;;22.00;96.10;;;;;;5050340;28;20087;-83
2021/08/03 14:30:51;;;;;;;0.00;0.00;;;22.30;96.10;;;;;;5045302;28;20538;-84
2021/08/03 14:33:38;;;;;;;0.00;0.00;;;22.20;95.10;;;;;;5047965;28;20067;-85
2021/08/03 14:36:27;;;;;;;0.00;0.00;;;22.10;94.60;;;;;;5048727;28;20183;-82
2021/08/03 14:39:14;;;;;;;0.00;0.00;;;22.30;95.30;;;;;;5047004;28;20037;-84
2021/08/03 14:42:02;;;;;;;0.00;0.00;;;22.30;96.40;;;;;;5054625;28;20045;-85
2021/08/03 14:44:50;;;;;;;0.00;0.00;;;22.40;96.20;;;;;;5050969;28;20493;-85